sensor_id;sensor_type;location;lat;lon;timestamp;temperature;humidity
44607;DHT22;30315;46.072;14.474;2022-10-13T00:01:18;15.60;75.00
44607;DHT22;30315;46.072;14.474;2022-10-13T00:03:46;15.50;74.80
44607;DHT22;30315;46.072;14.474;2022-10-13T00:06:19;15.50;74.90
44607;DHT22;30315;46.072;14.474;2022-10-13T00:08:46;15.50;74.80
44607;DHT22;30315;46.072;14.474;2022-10-13T00:11:17;15.50;74.70
44607;DHT22;30315;46.072;14.474;2022-10-13T00:13:45;15.50;74.60
44607;DHT22;30315;46.072;14.474;2022-10-13T00:16:13;15.50;74.50
44607;DHT22;30315;46.072;14.474;2022-10-13T00:18:40;15.50;74.30
44607;DHT22;30315;46.072;14.474;2022-10-13T00:21:08;15.50;74.50
44607;DHT22;30315;46.072;14.474;2022-10-13T00:23:35;15.50;74.70
44607;DHT22;30315;46.072;14.474;2022-10-13T00:26:06;15.50;74.40
44607;DHT22;30315;46.072;14.474;2022-10-13T00:28:34;15.40;74.10
44607;DHT22;30315;46.072;14.474;2022-10-13T00:31:00;15.40;74.20
44607;DHT22;30315;46.072;14.474;2022-10-13T00:33:27;15.40;74.20
44607;DHT22;30315;46.072;14.474;2022-10-13T00:35:54;15.20;74.20
44607;DHT22;30315;46.072;14.474;2022-10-13T00:38:21;15.20;74.50
44607;DHT22;30315;46.072;14.474;2022-10-13T00:40:53;15.20;74.60
44607;DHT22;30315;46.072;14.474;2022-10-13T00:43:21;15.10;74.80
44607;DHT22;30315;46.072;14.474;2022-10-13T00:45:49;15.20;75.10
44607;DHT22;30315;46.072;14.474;2022-10-13T00:48:23;15.20;74.90
44607;DHT22;30315;46.072;14.474;2022-10-13T00:50:52;15.20;74.70
44607;DHT22;30315;46.072;14.474;2022-10-13T00:53:19;15.20;74.50
44607;DHT22;30315;46.072;14.474;2022-10-13T00:55:47;15.10;74.20
44607;DHT22;30315;46.072;14.474;2022-10-13T00:58:15;15.10;74.30
44607;DHT22;30315;46.072;14.474;2022-10-13T01:00:46;15.10;74.40
44607;DHT22;30315;46.072;14.474;2022-10-13T01:03:15;14.80;74.30
44607;DHT22;30315;46.072;14.474;2022-10-13T01:05:42;15.00;74.60
44607;DHT22;30315;46.072;14.474;2022-10-13T01:08:10;15.10;74.90
44607;DHT22;30315;46.072;14.474;2022-10-13T01:10:44;15.00;74.80
44607;DHT22;30315;46.072;14.474;2022-10-13T01:13:33;15.00;75.10
44607;DHT22;30315;46.072;14.474;2022-10-13T01:21:37;15.00;74.70
44607;DHT22;30315;46.072;14.474;2022-10-13T01:29:28;14.90;74.80
44607;DHT22;30315;46.072;14.474;2022-10-13T01:32:00;14.90;74.90
44607;DHT22;30315;46.072;14.474;2022-10-13T01:37:08;14.90;75.30
44607;DHT22;30315;46.072;14.474;2022-10-13T01:39:39;14.90;76.30
44607;DHT22;30315;46.072;14.474;2022-10-13T01:42:15;14.90;75.80
44607;DHT22;30315;46.072;14.474;2022-10-13T01:44:45;14.90;75.60
44607;DHT22;30315;46.072;14.474;2022-10-13T01:47:14;14.90;75.30
44607;DHT22;30315;46.072;14.474;2022-10-13T01:49:42;14.90;74.90
44607;DHT22;30315;46.072;14.474;2022-10-13T01:52:14;14.90;75.30
44607;DHT22;30315;46.072;14.474;2022-10-13T01:54:46;14.80;75.40
44607;DHT22;30315;46.072;14.474;2022-10-13T01:57:26;14.80;75.30
44607;DHT22;30315;46.072;14.474;2022-10-13T01:59:55;14.80;75.50
44607;DHT22;30315;46.072;14.474;2022-10-13T02:02:26;14.80;75.80
44607;DHT22;30315;46.072;14.474;2022-10-13T02:07:29;14.90;76.40
44607;DHT22;30315;46.072;14.474;2022-10-13T02:10:42;14.90;76.70
44607;DHT22;30315;46.072;14.474;2022-10-13T02:15:44;14.90;76.90
44607;DHT22;30315;46.072;14.474;2022-10-13T02:18:13;14.90;76.90
44607;DHT22;30315;46.072;14.474;2022-10-13T02:20:40;14.90;76.90
44607;DHT22;30315;46.072;14.474;2022-10-13T02:23:08;14.90;77.20
44607;DHT22;30315;46.072;14.474;2022-10-13T02:25:37;14.90;77.40
44607;DHT22;30315;46.072;14.474;2022-10-13T02:28:05;14.90;77.40
44607;DHT22;30315;46.072;14.474;2022-10-13T02:30:40;14.90;77.50
44607;DHT22;30315;46.072;14.474;2022-10-13T02:33:08;14.90;77.60
44607;DHT22;30315;46.072;14.474;2022-10-13T02:35:36;14.90;77.60
44607;DHT22;30315;46.072;14.474;2022-10-13T02:38:03;14.90;77.80
44607;DHT22;30315;46.072;14.474;2022-10-13T02:40:30;14.80;77.60
44607;DHT22;30315;46.072;14.474;2022-10-13T02:42:57;14.90;77.80
44607;DHT22;30315;46.072;14.474;2022-10-13T02:45:24;14.80;78.00
44607;DHT22;30315;46.072;14.474;2022-10-13T02:47:53;14.80;78.20
44607;DHT22;30315;46.072;14.474;2022-10-13T02:50:20;14.80;78.20
44607;DHT22;30315;46.072;14.474;2022-10-13T02:52:49;14.80;78.40
44607;DHT22;30315;46.072;14.474;2022-10-13T02:55:16;14.80;78.60
44607;DHT22;30315;46.072;14.474;2022-10-13T02:57:44;14.80;78.40
44607;DHT22;30315;46.072;14.474;2022-10-13T03:00:11;14.70;78.60
44607;DHT22;30315;46.072;14.474;2022-10-13T03:02:38;14.70;79.00
44607;DHT22;30315;46.072;14.474;2022-10-13T03:05:05;14.70;79.20
44607;DHT22;30315;46.072;14.474;2022-10-13T03:07:32;14.80;79.60
44607;DHT22;30315;46.072;14.474;2022-10-13T03:09:59;14.80;79.70
44607;DHT22;30315;46.072;14.474;2022-10-13T03:12:25;14.80;79.80
44607;DHT22;30315;46.072;14.474;2022-10-13T03:14:52;14.80;80.00
44607;DHT22;30315;46.072;14.474;2022-10-13T03:17:19;14.80;80.20
44607;DHT22;30315;46.072;14.474;2022-10-13T03:19:46;14.80;80.50
44607;DHT22;30315;46.072;14.474;2022-10-13T03:22:16;14.70;80.90
44607;DHT22;30315;46.072;14.474;2022-10-13T03:24:44;14.70;81.30
44607;DHT22;30315;46.072;14.474;2022-10-13T03:27:11;14.70;81.80
44607;DHT22;30315;46.072;14.474;2022-10-13T03:29:38;14.80;82.10
44607;DHT22;30315;46.072;14.474;2022-10-13T03:32:04;14.80;82.50
44607;DHT22;30315;46.072;14.474;2022-10-13T03:34:31;14.80;82.60
44607;DHT22;30315;46.072;14.474;2022-10-13T03:36:58;14.80;83.10
44607;DHT22;30315;46.072;14.474;2022-10-13T03:39:25;14.80;83.40
44607;DHT22;30315;46.072;14.474;2022-10-13T03:41:52;14.80;83.50
44607;DHT22;30315;46.072;14.474;2022-10-13T03:44:19;14.80;83.50
44607;DHT22;30315;46.072;14.474;2022-10-13T03:46:45;14.80;83.50
44607;DHT22;30315;46.072;14.474;2022-10-13T03:49:12;14.80;84.00
44607;DHT22;30315;46.072;14.474;2022-10-13T03:51:39;14.80;84.00
44607;DHT22;30315;46.072;14.474;2022-10-13T03:54:06;14.80;84.00
44607;DHT22;30315;46.072;14.474;2022-10-13T03:56:33;14.80;84.20
44607;DHT22;30315;46.072;14.474;2022-10-13T03:58:59;14.70;84.00
44607;DHT22;30315;46.072;14.474;2022-10-13T04:01:28;14.80;84.00
44607;DHT22;30315;46.072;14.474;2022-10-13T04:03:56;14.80;84.10
44607;DHT22;30315;46.072;14.474;2022-10-13T04:06:23;14.50;84.00
44607;DHT22;30315;46.072;14.474;2022-10-13T04:08:50;14.80;84.30
44607;DHT22;30315;46.072;14.474;2022-10-13T04:11:17;14.80;84.20
44607;DHT22;30315;46.072;14.474;2022-10-13T04:13:49;14.80;84.20
44607;DHT22;30315;46.072;14.474;2022-10-13T04:16:20;14.70;83.80
44607;DHT22;30315;46.072;14.474;2022-10-13T04:18:54;14.70;83.50
44607;DHT22;30315;46.072;14.474;2022-10-13T04:21:22;14.80;84.00
44607;DHT22;30315;46.072;14.474;2022-10-13T04:23:49;14.70;84.20
44607;DHT22;30315;46.072;14.474;2022-10-13T04:26:17;14.70;84.40
44607;DHT22;30315;46.072;14.474;2022-10-13T04:28:45;14.70;84.50
44607;DHT22;30315;46.072;14.474;2022-10-13T04:31:12;14.70;84.70
44607;DHT22;30315;46.072;14.474;2022-10-13T04:33:39;14.70;84.90
44607;DHT22;30315;46.072;14.474;2022-10-13T04:36:06;14.70;84.80
44607;DHT22;30315;46.072;14.474;2022-10-13T04:38:33;14.70;84.50
44607;DHT22;30315;46.072;14.474;2022-10-13T04:41:01;14.70;84.60
44607;DHT22;30315;46.072;14.474;2022-10-13T04:43:28;14.60;84.40
44607;DHT22;30315;46.072;14.474;2022-10-13T04:46:06;14.70;84.50
44607;DHT22;30315;46.072;14.474;2022-10-13T04:48:33;14.60;84.60
44607;DHT22;30315;46.072;14.474;2022-10-13T04:51:04;14.60;84.70
44607;DHT22;30315;46.072;14.474;2022-10-13T04:53:31;14.70;84.50
44607;DHT22;30315;46.072;14.474;2022-10-13T04:56:02;14.70;84.70
44607;DHT22;30315;46.072;14.474;2022-10-13T04:58:30;14.70;84.50
44607;DHT22;30315;46.072;14.474;2022-10-13T05:01:00;14.70;85.40
44607;DHT22;30315;46.072;14.474;2022-10-13T05:03:27;14.60;84.90
44607;DHT22;30315;46.072;14.474;2022-10-13T05:05:54;14.60;84.90
44607;DHT22;30315;46.072;14.474;2022-10-13T05:08:21;14.60;84.90
44607;DHT22;30315;46.072;14.474;2022-10-13T05:10:59;14.60;85.00
44607;DHT22;30315;46.072;14.474;2022-10-13T05:13:26;14.60;85.10
44607;DHT22;30315;46.072;14.474;2022-10-13T05:15:56;14.70;85.20
44607;DHT22;30315;46.072;14.474;2022-10-13T05:18:23;14.60;85.20
44607;DHT22;30315;46.072;14.474;2022-10-13T05:20:50;14.60;85.20
44607;DHT22;30315;46.072;14.474;2022-10-13T05:23:17;14.70;85.10
44607;DHT22;30315;46.072;14.474;2022-10-13T05:25:43;14.70;85.00
44607;DHT22;30315;46.072;14.474;2022-10-13T05:28:12;14.70;85.00
44607;DHT22;30315;46.072;14.474;2022-10-13T05:30:39;14.60;84.90
44607;DHT22;30315;46.072;14.474;2022-10-13T05:33:06;14.60;85.20
44607;DHT22;30315;46.072;14.474;2022-10-13T05:35:32;14.60;85.30
44607;DHT22;30315;46.072;14.474;2022-10-13T05:37:59;14.60;85.30
44607;DHT22;30315;46.072;14.474;2022-10-13T05:40:26;14.60;85.40
44607;DHT22;30315;46.072;14.474;2022-10-13T05:42:58;14.70;85.90
44607;DHT22;30315;46.072;14.474;2022-10-13T05:45:26;14.60;86.10
44607;DHT22;30315;46.072;14.474;2022-10-13T05:47:54;14.60;86.30
44607;DHT22;30315;46.072;14.474;2022-10-13T05:50:21;14.50;86.20
44607;DHT22;30315;46.072;14.474;2022-10-13T05:52:48;14.60;86.30
44607;DHT22;30315;46.072;14.474;2022-10-13T05:55:15;14.60;86.30
44607;DHT22;30315;46.072;14.474;2022-10-13T05:57:44;14.70;86.30
44607;DHT22;30315;46.072;14.474;2022-10-13T06:00:14;14.60;86.10
44607;DHT22;30315;46.072;14.474;2022-10-13T06:02:47;14.60;86.20
44607;DHT22;30315;46.072;14.474;2022-10-13T06:05:15;14.70;88.00
44607;DHT22;30315;46.072;14.474;2022-10-13T06:07:42;14.80;88.90
44607;DHT22;30315;46.072;14.474;2022-10-13T06:10:10;14.80;88.50
44607;DHT22;30315;46.072;14.474;2022-10-13T06:12:37;14.80;87.90
44607;DHT22;30315;46.072;14.474;2022-10-13T06:15:04;14.90;87.60
44607;DHT22;30315;46.072;14.474;2022-10-13T06:17:34;14.90;86.80
44607;DHT22;30315;46.072;14.474;2022-10-13T06:20:01;14.90;85.80
44607;DHT22;30315;46.072;14.474;2022-10-13T06:22:27;14.80;85.30
44607;DHT22;30315;46.072;14.474;2022-10-13T06:24:54;14.80;85.30
44607;DHT22;30315;46.072;14.474;2022-10-13T06:27:21;14.80;85.30
44607;DHT22;30315;46.072;14.474;2022-10-13T06:29:52;14.80;85.20
44607;DHT22;30315;46.072;14.474;2022-10-13T06:32:18;14.80;85.30
44607;DHT22;30315;46.072;14.474;2022-10-13T06:34:46;14.70;85.40
44607;DHT22;30315;46.072;14.474;2022-10-13T06:37:13;14.70;85.10
44607;DHT22;30315;46.072;14.474;2022-10-13T06:39:39;14.70;85.00
44607;DHT22;30315;46.072;14.474;2022-10-13T06:42:07;14.70;85.20
44607;DHT22;30315;46.072;14.474;2022-10-13T06:44:37;14.70;85.40
44607;DHT22;30315;46.072;14.474;2022-10-13T06:47:03;14.70;85.40
44607;DHT22;30315;46.072;14.474;2022-10-13T06:49:30;14.70;85.40
44607;DHT22;30315;46.072;14.474;2022-10-13T06:51:57;14.70;85.50
44607;DHT22;30315;46.072;14.474;2022-10-13T06:54:24;14.60;85.40
44607;DHT22;30315;46.072;14.474;2022-10-13T06:56:51;14.70;85.60
44607;DHT22;30315;46.072;14.474;2022-10-13T06:59:18;14.60;85.50
44607;DHT22;30315;46.072;14.474;2022-10-13T07:01:46;14.70;85.50
44607;DHT22;30315;46.072;14.474;2022-10-13T07:04:14;14.70;85.50
44607;DHT22;30315;46.072;14.474;2022-10-13T07:06:41;14.70;84.60
44607;DHT22;30315;46.072;14.474;2022-10-13T07:09:07;14.70;84.30
44607;DHT22;30315;46.072;14.474;2022-10-13T07:11:34;14.70;84.60
44607;DHT22;30315;46.072;14.474;2022-10-13T07:14:01;14.70;84.70
44607;DHT22;30315;46.072;14.474;2022-10-13T07:16:28;14.70;84.80
44607;DHT22;30315;46.072;14.474;2022-10-13T07:18:55;14.70;84.70
44607;DHT22;30315;46.072;14.474;2022-10-13T07:21:22;14.70;84.60
44607;DHT22;30315;46.072;14.474;2022-10-13T07:23:49;14.70;84.40
44607;DHT22;30315;46.072;14.474;2022-10-13T07:26:15;14.70;84.30
44607;DHT22;30315;46.072;14.474;2022-10-13T07:28:43;14.60;84.50
44607;DHT22;30315;46.072;14.474;2022-10-13T07:31:11;14.70;84.90
44607;DHT22;30315;46.072;14.474;2022-10-13T07:33:40;14.80;85.10
44607;DHT22;30315;46.072;14.474;2022-10-13T07:36:07;14.80;85.10
44607;DHT22;30315;46.072;14.474;2022-10-13T07:38:34;14.80;85.00
44607;DHT22;30315;46.072;14.474;2022-10-13T07:41:01;14.70;84.90
44607;DHT22;30315;46.072;14.474;2022-10-13T07:43:28;14.80;85.00
44607;DHT22;30315;46.072;14.474;2022-10-13T07:45:57;14.80;85.00
44607;DHT22;30315;46.072;14.474;2022-10-13T07:48:26;14.80;84.90
44607;DHT22;30315;46.072;14.474;2022-10-13T07:50:54;14.80;84.90
44607;DHT22;30315;46.072;14.474;2022-10-13T07:53:21;14.90;84.80
44607;DHT22;30315;46.072;14.474;2022-10-13T07:55:48;14.90;84.70
44607;DHT22;30315;46.072;14.474;2022-10-13T07:58:15;14.80;84.30
44607;DHT22;30315;46.072;14.474;2022-10-13T08:00:42;15.10;85.00
44607;DHT22;30315;46.072;14.474;2022-10-13T08:03:09;14.80;84.80
44607;DHT22;30315;46.072;14.474;2022-10-13T08:05:36;14.90;85.00
44607;DHT22;30315;46.072;14.474;2022-10-13T08:08:04;15.00;85.10
44607;DHT22;30315;46.072;14.474;2022-10-13T08:10:30;15.00;85.00
44607;DHT22;30315;46.072;14.474;2022-10-13T08:12:57;15.00;84.90
44607;DHT22;30315;46.072;14.474;2022-10-13T08:15:24;15.10;85.10
44607;DHT22;30315;46.072;14.474;2022-10-13T08:17:51;15.10;85.00
44607;DHT22;30315;46.072;14.474;2022-10-13T08:20:18;15.10;84.70
44607;DHT22;30315;46.072;14.474;2022-10-13T08:22:45;15.10;84.60
44607;DHT22;30315;46.072;14.474;2022-10-13T08:25:12;15.10;84.40
44607;DHT22;30315;46.072;14.474;2022-10-13T08:27:38;15.10;84.30
44607;DHT22;30315;46.072;14.474;2022-10-13T08:30:17;15.10;84.30
44607;DHT22;30315;46.072;14.474;2022-10-13T08:32:44;15.20;84.20
44607;DHT22;30315;46.072;14.474;2022-10-13T08:35:11;15.20;84.20
44607;DHT22;30315;46.072;14.474;2022-10-13T08:37:38;15.20;84.20
44607;DHT22;30315;46.072;14.474;2022-10-13T08:40:05;15.30;84.00
44607;DHT22;30315;46.072;14.474;2022-10-13T08:42:32;15.30;84.30
44607;DHT22;30315;46.072;14.474;2022-10-13T08:45:00;15.30;84.30
44607;DHT22;30315;46.072;14.474;2022-10-13T08:50:41;15.50;84.00
44607;DHT22;30315;46.072;14.474;2022-10-13T08:55:48;15.50;83.80
44607;DHT22;30315;46.072;14.474;2022-10-13T09:00:45;15.40;83.80
44607;DHT22;30315;46.072;14.474;2022-10-13T09:05:44;15.60;83.80
44607;DHT22;30315;46.072;14.474;2022-10-13T09:08:17;15.60;83.90
44607;DHT22;30315;46.072;14.474;2022-10-13T09:10:48;15.60;83.60
44607;DHT22;30315;46.072;14.474;2022-10-13T09:13:17;15.70;83.90
44607;DHT22;30315;46.072;14.474;2022-10-13T09:15:45;15.80;83.50
44607;DHT22;30315;46.072;14.474;2022-10-13T09:18:14;15.80;83.30
44607;DHT22;30315;46.072;14.474;2022-10-13T09:20:41;15.80;83.30
44607;DHT22;30315;46.072;14.474;2022-10-13T09:25:44;15.90;83.00
44607;DHT22;30315;46.072;14.474;2022-10-13T09:28:29;15.90;83.10
44607;DHT22;30315;46.072;14.474;2022-10-13T09:36:53;16.00;83.60
44607;DHT22;30315;46.072;14.474;2022-10-13T09:39:20;16.10;83.40
44607;DHT22;30315;46.072;14.474;2022-10-13T09:41:48;16.20;83.00
44607;DHT22;30315;46.072;14.474;2022-10-13T09:44:16;16.20;82.70
44607;DHT22;30315;46.072;14.474;2022-10-13T09:46:47;16.20;82.50
44607;DHT22;30315;46.072;14.474;2022-10-13T09:51:50;16.30;82.30
44607;DHT22;30315;46.072;14.474;2022-10-13T09:54:25;16.40;82.30
44607;DHT22;30315;46.072;14.474;2022-10-13T09:56:53;16.40;82.10
44607;DHT22;30315;46.072;14.474;2022-10-13T09:59:26;16.50;82.00
44607;DHT22;30315;46.072;14.474;2022-10-13T10:01:56;16.50;81.50
44607;DHT22;30315;46.072;14.474;2022-10-13T10:04:34;16.50;81.40
44607;DHT22;30315;46.072;14.474;2022-10-13T10:07:10;16.60;81.40
44607;DHT22;30315;46.072;14.474;2022-10-13T10:09:39;16.60;81.50
44607;DHT22;30315;46.072;14.474;2022-10-13T10:12:09;16.70;81.40
44607;DHT22;30315;46.072;14.474;2022-10-13T10:14:38;16.70;81.00
44607;DHT22;30315;46.072;14.474;2022-10-13T10:27:14;16.80;80.90
44607;DHT22;30315;46.072;14.474;2022-10-13T10:34:53;16.90;81.30
44607;DHT22;30315;46.072;14.474;2022-10-13T10:45:22;17.30;80.80
44607;DHT22;30315;46.072;14.474;2022-10-13T10:47:52;17.40;80.80
44607;DHT22;30315;46.072;14.474;2022-10-13T10:50:21;17.50;80.90
44607;DHT22;30315;46.072;14.474;2022-10-13T10:52:51;17.60;80.60
44607;DHT22;30315;46.072;14.474;2022-10-13T10:55:26;17.80;80.60
44607;DHT22;30315;46.072;14.474;2022-10-13T11:00:23;18.00;79.50
44607;DHT22;30315;46.072;14.474;2022-10-13T11:03:07;18.00;79.30
44607;DHT22;30315;46.072;14.474;2022-10-13T11:13:59;18.60;81.20
44607;DHT22;30315;46.072;14.474;2022-10-13T11:48:35;20.70;74.00
44607;DHT22;30315;46.072;14.474;2022-10-13T11:56:18;20.90;73.60
44607;DHT22;30315;46.072;14.474;2022-10-13T11:58:48;21.00;73.60
44607;DHT22;30315;46.072;14.474;2022-10-13T12:01:22;21.00;72.40
44607;DHT22;30315;46.072;14.474;2022-10-13T12:03:48;21.20;71.30
44607;DHT22;30315;46.072;14.474;2022-10-13T12:08:47;21.40;70.20
44607;DHT22;30315;46.072;14.474;2022-10-13T12:11:25;21.40;69.30
44607;DHT22;30315;46.072;14.474;2022-10-13T12:13:53;21.40;68.10
44607;DHT22;30315;46.072;14.474;2022-10-13T12:16:20;21.50;68.10
44607;DHT22;30315;46.072;14.474;2022-10-13T12:18:48;21.50;68.10
44607;DHT22;30315;46.072;14.474;2022-10-13T12:21:16;21.60;68.40
44607;DHT22;30315;46.072;14.474;2022-10-13T12:23:46;21.70;67.80
44607;DHT22;30315;46.072;14.474;2022-10-13T12:26:20;21.80;67.40
44607;DHT22;30315;46.072;14.474;2022-10-13T12:28:56;21.90;66.50
44607;DHT22;30315;46.072;14.474;2022-10-13T12:31:26;22.00;66.00
44607;DHT22;30315;46.072;14.474;2022-10-13T12:33:57;22.00;65.20
44607;DHT22;30315;46.072;14.474;2022-10-13T12:36:26;22.20;66.00
44607;DHT22;30315;46.072;14.474;2022-10-13T12:39:03;22.20;64.40
44607;DHT22;30315;46.072;14.474;2022-10-13T12:41:34;22.20;63.20
44607;DHT22;30315;46.072;14.474;2022-10-13T12:44:02;22.30;63.30
44607;DHT22;30315;46.072;14.474;2022-10-13T12:46:42;22.40;63.70
44607;DHT22;30315;46.072;14.474;2022-10-13T12:49:16;22.40;63.40
44607;DHT22;30315;46.072;14.474;2022-10-13T12:51:47;22.60;63.20
44607;DHT22;30315;46.072;14.474;2022-10-13T12:54:21;22.60;62.30
44607;DHT22;30315;46.072;14.474;2022-10-13T12:56:49;22.60;61.40
44607;DHT22;30315;46.072;14.474;2022-10-13T12:59:22;22.70;61.50
44607;DHT22;30315;46.072;14.474;2022-10-13T13:01:51;22.80;61.60
44607;DHT22;30315;46.072;14.474;2022-10-13T13:09:22;23.00;60.80
44607;DHT22;30315;46.072;14.474;2022-10-13T13:12:14;23.00;60.00
44607;DHT22;30315;46.072;14.474;2022-10-13T13:14:45;23.10;60.10
44607;DHT22;30315;46.072;14.474;2022-10-13T13:20:18;23.20;60.20
44607;DHT22;30315;46.072;14.474;2022-10-13T13:22:45;23.10;59.70
44607;DHT22;30315;46.072;14.474;2022-10-13T13:25:12;22.90;59.80
44607;DHT22;30315;46.072;14.474;2022-10-13T13:27:40;22.80;60.30
44607;DHT22;30315;46.072;14.474;2022-10-13T13:30:11;22.60;60.60
44607;DHT22;30315;46.072;14.474;2022-10-13T13:32:39;22.50;61.10
44607;DHT22;30315;46.072;14.474;2022-10-13T13:35:06;22.30;61.40
44607;DHT22;30315;46.072;14.474;2022-10-13T13:37:44;22.20;61.90
44607;DHT22;30315;46.072;14.474;2022-10-13T13:40:14;22.10;62.30
44607;DHT22;30315;46.072;14.474;2022-10-13T13:42:41;22.00;62.80
44607;DHT22;30315;46.072;14.474;2022-10-13T13:45:12;22.00;63.20
44607;DHT22;30315;46.072;14.474;2022-10-13T13:47:39;22.00;63.70
44607;DHT22;30315;46.072;14.474;2022-10-13T13:50:40;22.00;63.20
44607;DHT22;30315;46.072;14.474;2022-10-13T13:52:59;22.20;63.10
44607;DHT22;30315;46.072;14.474;2022-10-13T13:55:27;22.30;63.50
44607;DHT22;30315;46.072;14.474;2022-10-13T13:57:55;22.40;63.20
44607;DHT22;30315;46.072;14.474;2022-10-13T14:00:22;22.60;61.80
44607;DHT22;30315;46.072;14.474;2022-10-13T14:02:53;22.70;61.30
44607;DHT22;30315;46.072;14.474;2022-10-13T14:05:20;22.80;60.60
44607;DHT22;30315;46.072;14.474;2022-10-13T14:07:47;22.90;60.50
44607;DHT22;30315;46.072;14.474;2022-10-13T14:10:14;23.00;60.60
44607;DHT22;30315;46.072;14.474;2022-10-13T14:12:41;23.30;60.70
44607;DHT22;30315;46.072;14.474;2022-10-13T14:15:08;23.30;59.90
44607;DHT22;30315;46.072;14.474;2022-10-13T14:17:35;23.50;59.60
44607;DHT22;30315;46.072;14.474;2022-10-13T14:20:01;23.60;59.00
44607;DHT22;30315;46.072;14.474;2022-10-13T14:22:28;23.70;58.80
44607;DHT22;30315;46.072;14.474;2022-10-13T14:25:02;23.80;58.50
44607;DHT22;30315;46.072;14.474;2022-10-13T14:27:32;23.90;58.00
44607;DHT22;30315;46.072;14.474;2022-10-13T14:30:00;24.00;57.90
44607;DHT22;30315;46.072;14.474;2022-10-13T14:32:27;24.00;57.50
44607;DHT22;30315;46.072;14.474;2022-10-13T14:34:54;24.00;57.30
44607;DHT22;30315;46.072;14.474;2022-10-13T14:37:21;24.10;57.20
44607;DHT22;30315;46.072;14.474;2022-10-13T14:39:50;24.10;56.90
44607;DHT22;30315;46.072;14.474;2022-10-13T14:42:17;24.20;57.00
44607;DHT22;30315;46.072;14.474;2022-10-13T14:44:44;24.20;56.70
44607;DHT22;30315;46.072;14.474;2022-10-13T14:47:10;24.30;56.80
44607;DHT22;30315;46.072;14.474;2022-10-13T14:49:37;24.30;56.80
44607;DHT22;30315;46.072;14.474;2022-10-13T14:52:04;24.30;56.50
44607;DHT22;30315;46.072;14.474;2022-10-13T14:54:31;24.30;56.20
44607;DHT22;30315;46.072;14.474;2022-10-13T14:56:57;24.30;56.20
44607;DHT22;30315;46.072;14.474;2022-10-13T14:59:26;24.20;56.10
44607;DHT22;30315;46.072;14.474;2022-10-13T15:01:53;24.20;56.10
44607;DHT22;30315;46.072;14.474;2022-10-13T15:04:20;24.20;56.20
44607;DHT22;30315;46.072;14.474;2022-10-13T15:06:46;24.00;55.90
44607;DHT22;30315;46.072;14.474;2022-10-13T15:09:13;23.90;56.10
44607;DHT22;30315;46.072;14.474;2022-10-13T15:11:40;23.80;56.10
44607;DHT22;30315;46.072;14.474;2022-10-13T15:14:07;23.60;56.10
44607;DHT22;30315;46.072;14.474;2022-10-13T15:16:35;23.60;56.30
44607;DHT22;30315;46.072;14.474;2022-10-13T15:19:03;23.50;56.20
44607;DHT22;30315;46.072;14.474;2022-10-13T15:21:30;23.30;56.40
44607;DHT22;30315;46.072;14.474;2022-10-13T15:23:57;23.20;56.60
44607;DHT22;30315;46.072;14.474;2022-10-13T15:26:23;23.10;57.10
44607;DHT22;30315;46.072;14.474;2022-10-13T15:28:51;23.00;57.30
44607;DHT22;30315;46.072;14.474;2022-10-13T15:31:18;22.70;57.70
44607;DHT22;30315;46.072;14.474;2022-10-13T15:33:46;22.60;58.10
44607;DHT22;30315;46.072;14.474;2022-10-13T15:36:13;22.50;58.70
44607;DHT22;30315;46.072;14.474;2022-10-13T15:38:40;22.30;59.30
44607;DHT22;30315;46.072;14.474;2022-10-13T15:41:08;22.20;59.80
44607;DHT22;30315;46.072;14.474;2022-10-13T15:43:36;22.10;60.30
44607;DHT22;30315;46.072;14.474;2022-10-13T15:46:03;21.90;60.90
44607;DHT22;30315;46.072;14.474;2022-10-13T15:48:31;21.80;61.60
44607;DHT22;30315;46.072;14.474;2022-10-13T15:50:58;21.70;62.20
44607;DHT22;30315;46.072;14.474;2022-10-13T15:53:25;21.50;62.70
44607;DHT22;30315;46.072;14.474;2022-10-13T15:55:52;21.40;63.50
44607;DHT22;30315;46.072;14.474;2022-10-13T15:58:19;21.30;63.70
44607;DHT22;30315;46.072;14.474;2022-10-13T16:00:46;21.20;64.30
44607;DHT22;30315;46.072;14.474;2022-10-13T16:03:13;20.90;64.60
44607;DHT22;30315;46.072;14.474;2022-10-13T16:05:41;20.90;65.20
44607;DHT22;30315;46.072;14.474;2022-10-13T16:08:08;20.80;65.80
44607;DHT22;30315;46.072;14.474;2022-10-13T16:10:37;20.70;66.10
44607;DHT22;30315;46.072;14.474;2022-10-13T16:13:04;20.60;66.70
44607;DHT22;30315;46.072;14.474;2022-10-13T16:15:31;20.50;66.90
44607;DHT22;30315;46.072;14.474;2022-10-13T16:17:57;20.40;67.30
44607;DHT22;30315;46.072;14.474;2022-10-13T16:20:24;20.40;67.70
44607;DHT22;30315;46.072;14.474;2022-10-13T16:22:52;20.30;68.10
44607;DHT22;30315;46.072;14.474;2022-10-13T16:25:19;20.30;68.30
44607;DHT22;30315;46.072;14.474;2022-10-13T16:27:46;20.30;68.60
44607;DHT22;30315;46.072;14.474;2022-10-13T16:30:12;20.20;68.60
44607;DHT22;30315;46.072;14.474;2022-10-13T16:32:39;20.20;68.70
44607;DHT22;30315;46.072;14.474;2022-10-13T16:35:06;19.90;68.60
44607;DHT22;30315;46.072;14.474;2022-10-13T16:37:33;20.10;69.00
44607;DHT22;30315;46.072;14.474;2022-10-13T16:40:00;20.10;69.20
44607;DHT22;30315;46.072;14.474;2022-10-13T16:42:27;20.00;69.40
44607;DHT22;30315;46.072;14.474;2022-10-13T16:44:54;20.00;69.40
44607;DHT22;30315;46.072;14.474;2022-10-13T16:47:25;19.90;69.10
44607;DHT22;30315;46.072;14.474;2022-10-13T16:49:52;19.80;68.90
44607;DHT22;30315;46.072;14.474;2022-10-13T16:52:19;19.70;69.20
44607;DHT22;30315;46.072;14.474;2022-10-13T16:54:46;19.70;69.20
44607;DHT22;30315;46.072;14.474;2022-10-13T16:57:13;19.60;69.60
44607;DHT22;30315;46.072;14.474;2022-10-13T16:59:40;19.50;69.80
44607;DHT22;30315;46.072;14.474;2022-10-13T17:02:10;19.50;70.10
44607;DHT22;30315;46.072;14.474;2022-10-13T17:04:39;19.10;69.80
44607;DHT22;30315;46.072;14.474;2022-10-13T17:07:06;19.40;70.40
44607;DHT22;30315;46.072;14.474;2022-10-13T17:09:33;19.30;70.40
44607;DHT22;30315;46.072;14.474;2022-10-13T17:12:00;19.10;70.60
44607;DHT22;30315;46.072;14.474;2022-10-13T17:14:27;19.20;70.90
44607;DHT22;30315;46.072;14.474;2022-10-13T17:16:54;19.10;71.00
44607;DHT22;30315;46.072;14.474;2022-10-13T17:19:23;19.00;71.20
44607;DHT22;30315;46.072;14.474;2022-10-13T17:21:50;19.00;71.30
44607;DHT22;30315;46.072;14.474;2022-10-13T17:24:17;19.00;71.50
44607;DHT22;30315;46.072;14.474;2022-10-13T17:26:44;18.90;71.40